< < Back
Terminal Aerodrome Forecast


Current Version              Previous Versions:   1  2  3  4  5  6  7  8  9  

Terminal Aerodrome Forecast

495
FTUS44 KMOB 051747
TAFMOB
TAF
KMOB 051747Z 0518/0618 34019G29KT P6SM BKN015
     FM060000 36015G25KT P6SM SCT025 BKN070
     FM060600 36013KT P6SM SCT250=

Latest METAR

572
SAUS80 KWBC 052000 CCA
MTRMOB
METAR KMOB 051956Z 35020G27KT 7SM OVC013 06/02 A3020 RMK AO2 PK WND
36028/1938 SLP225 T00610022


USA.gov is the U.S. government's official web portal to all federal, state and local government web resources and services.